createdAt,value
2019-03-23T00:02:08.255Z,27.25
2019-03-23T00:04:38.782Z,29.02
2019-03-23T00:07:09.436Z,30.30
2019-03-23T00:09:39.958Z,27.60
2019-03-23T00:12:10.503Z,25.77
2019-03-23T00:14:40.957Z,23.83
2019-03-23T00:17:11.438Z,24.80
2019-03-23T00:19:41.888Z,22.32
2019-03-23T00:22:12.378Z,25.20
2019-03-23T00:24:42.987Z,24.57
2019-03-23T00:27:13.540Z,23.42
2019-03-23T00:29:44.075Z,21.60
2019-03-23T00:32:14.642Z,22.42
2019-03-23T00:34:45.163Z,22.13
2019-03-23T00:37:15.645Z,23.32
2019-03-23T00:39:46.193Z,22.48
2019-03-23T00:42:17.009Z,22.98
2019-03-23T00:44:47.543Z,25.23
2019-03-23T00:47:19.101Z,25.57
2019-03-23T00:49:49.549Z,26.23
2019-03-23T00:52:20.119Z,26.62
2019-03-23T00:54:50.552Z,25.02
2019-03-23T00:57:21.354Z,26.33
2019-03-23T00:59:51.867Z,24.40
2019-03-23T01:02:22.429Z,25.70
2019-03-23T01:04:53.439Z,29.23
2019-03-23T01:07:23.972Z,28.02
2019-03-23T01:09:55.434Z,28.40
2019-03-23T01:12:25.939Z,30.15
2019-03-23T01:14:56.544Z,28.38
2019-03-23T01:17:27.014Z,30.30
2019-03-23T01:19:57.603Z,30.72
2019-03-23T01:22:28.353Z,32.25
2019-03-23T01:24:58.811Z,31.30
2019-03-23T01:27:29.360Z,34.78
2019-03-23T01:29:59.891Z,33.35
2019-03-23T01:32:30.553Z,32.78
2019-03-23T01:35:01.154Z,32.55
2019-03-23T01:37:31.797Z,32.53
2019-03-23T01:40:02.389Z,35.15
2019-03-23T01:42:32.936Z,37.23
2019-03-23T01:45:04.306Z,35.40
2019-03-23T01:47:34.856Z,36.00
2019-03-23T01:50:08.569Z,36.58
2019-03-23T01:52:39.149Z,39.55
2019-03-23T01:55:09.692Z,40.98
2019-03-23T01:57:41.383Z,43.05
2019-03-23T02:00:12.959Z,41.10
2019-03-23T02:02:43.487Z,40.88
2019-03-23T02:05:14.011Z,42.60
2019-03-23T02:07:44.485Z,37.55
2019-03-23T02:10:15.144Z,38.02
2019-03-23T02:12:45.703Z,37.30
2019-03-23T02:15:16.149Z,35.48
2019-03-23T02:17:46.623Z,34.23
2019-03-23T02:20:17.068Z,35.40
2019-03-23T02:22:47.664Z,35.13
2019-03-23T02:25:18.198Z,34.65
2019-03-23T02:27:50.155Z,33.75
2019-03-23T02:30:20.612Z,33.63
2019-03-23T02:32:51.170Z,31.25
2019-03-23T02:35:21.614Z,31.07
2019-03-23T02:37:52.167Z,31.65
2019-03-23T02:40:22.670Z,30.65
2019-03-23T02:42:53.173Z,29.40
2019-03-23T02:45:23.687Z,28.07
2019-03-23T02:47:55.244Z,31.73
2019-03-23T02:50:25.755Z,26.85
2019-03-23T02:52:56.367Z,26.85
2019-03-23T02:55:26.904Z,26.05
2019-03-23T02:57:57.400Z,28.25
2019-03-23T03:00:27.856Z,28.32
2019-03-23T03:02:58.481Z,28.73
2019-03-23T03:05:29.009Z,26.85
2019-03-23T03:07:59.496Z,27.93
2019-03-23T03:10:38.082Z,28.67
2019-03-23T03:13:08.714Z,30.37
2019-03-23T03:15:40.807Z,30.90
2019-03-23T03:18:11.380Z,32.25
2019-03-23T03:20:42.921Z,33.13
2019-03-23T03:23:14.574Z,30.15
2019-03-23T03:25:45.093Z,31.57
2019-03-23T03:28:15.555Z,31.97
2019-03-23T03:30:46.090Z,28.77
2019-03-23T03:33:16.654Z,29.23
2019-03-23T03:35:47.132Z,29.45
2019-03-23T03:38:17.619Z,29.45
2019-03-23T03:40:48.149Z,29.05
2019-03-23T03:43:18.700Z,29.07
2019-03-23T03:45:49.139Z,30.30
2019-03-23T03:48:19.684Z,29.35
2019-03-23T03:50:50.204Z,28.02
2019-03-23T03:53:20.792Z,27.25
2019-03-23T03:55:51.317Z,28.87
2019-03-23T03:58:21.826Z,29.23
2019-03-23T04:00:52.288Z,30.37
2019-03-23T04:03:22.762Z,31.20
2019-03-23T04:05:53.218Z,33.10
2019-03-23T04:08:23.688Z,30.90
2019-03-23T04:10:54.205Z,30.55
2019-03-23T04:13:24.786Z,30.60
2019-03-23T04:15:55.397Z,28.80
2019-03-23T04:18:25.886Z,31.80
2019-03-23T04:20:56.398Z,30.60
2019-03-23T04:23:27.960Z,30.68
2019-03-23T04:25:58.388Z,29.80
2019-03-23T04:28:28.968Z,28.98
2019-03-23T04:30:59.496Z,30.10
2019-03-23T04:33:30.371Z,30.82
2019-03-23T04:36:00.999Z,30.15
2019-03-23T04:38:31.649Z,30.72
2019-03-23T04:41:02.102Z,30.08
2019-03-23T04:43:32.681Z,32.10
2019-03-23T04:46:03.195Z,27.80
2019-03-23T04:48:33.771Z,29.30
2019-03-23T04:51:04.463Z,30.65
2019-03-23T04:53:34.973Z,31.73
2019-03-23T04:56:05.541Z,33.85
2019-03-23T04:58:36.192Z,32.53
2019-03-23T05:01:06.765Z,33.42
2019-03-23T05:03:37.216Z,32.75
2019-03-23T05:06:07.680Z,35.08
2019-03-23T05:08:38.270Z,32.70
2019-03-23T05:11:08.731Z,30.02
2019-03-23T05:13:39.191Z,28.92
2019-03-23T05:16:09.820Z,26.75
2019-03-23T05:18:40.561Z,30.08
2019-03-23T05:21:11.071Z,29.98
2019-03-23T05:23:42.612Z,30.37
2019-03-23T05:26:13.290Z,33.20
2019-03-23T05:28:43.727Z,36.03
2019-03-23T05:31:14.300Z,37.15
2019-03-23T05:33:44.911Z,40.75
2019-03-23T05:36:15.646Z,40.85
2019-03-23T05:38:46.160Z,41.40
2019-03-23T05:41:16.776Z,45.58
2019-03-23T05:43:47.237Z,52.60
2019-03-23T05:46:19.136Z,51.63
2019-03-23T05:48:49.620Z,56.40
2019-03-23T05:51:20.145Z,52.40
2019-03-23T05:53:50.599Z,52.88
2019-03-23T05:56:21.207Z,57.48
2019-03-23T05:58:51.858Z,66.80
2019-03-23T06:01:22.461Z,64.35
2019-03-23T06:03:53.080Z,73.72
2019-03-23T06:06:23.606Z,72.37
2019-03-23T06:08:55.382Z,74.00
2019-03-23T06:11:26.140Z,74.27
2019-03-23T06:13:56.618Z,67.25
2019-03-23T06:16:27.207Z,62.98
2019-03-23T06:18:57.729Z,52.17
2019-03-23T06:21:28.323Z,43.70
2019-03-23T06:23:58.896Z,39.80
2019-03-23T06:26:29.492Z,38.00
2019-03-23T06:28:59.941Z,35.68
2019-03-23T06:31:30.386Z,35.73
2019-03-23T06:34:00.842Z,34.65
2019-03-23T06:36:31.427Z,34.63
2019-03-23T06:39:05.734Z,36.45
2019-03-23T06:41:34.264Z,37.58
2019-03-23T06:44:04.919Z,38.88
2019-03-23T06:46:35.566Z,36.85
2019-03-23T06:49:06.107Z,34.92
2019-03-23T06:51:36.704Z,35.52
2019-03-23T06:54:07.477Z,36.50
2019-03-23T06:56:37.946Z,38.25
2019-03-23T06:59:08.479Z,36.83
2019-03-23T07:01:39.106Z,38.60
2019-03-23T07:04:10.089Z,38.63
2019-03-23T07:06:40.675Z,36.50
2019-03-23T07:09:16.169Z,36.55
2019-03-23T07:11:43.416Z,39.13
2019-03-23T07:14:14.969Z,37.95
2019-03-23T07:16:46.118Z,37.30
2019-03-23T07:19:16.675Z,39.03
2019-03-23T07:21:47.308Z,39.30
2019-03-23T07:24:17.914Z,40.85
2019-03-23T07:26:48.526Z,39.23
2019-03-23T07:29:19.114Z,40.90
2019-03-23T07:31:49.676Z,40.00
2019-03-23T07:34:20.215Z,38.40
2019-03-23T07:36:50.829Z,38.08
2019-03-23T07:39:28.018Z,39.98
2019-03-23T07:41:53.625Z,41.28
2019-03-23T07:44:24.158Z,41.75
2019-03-23T07:46:54.651Z,40.43
2019-03-23T07:49:25.103Z,38.33
2019-03-23T07:51:55.725Z,39.03
2019-03-23T07:54:29.395Z,38.40
2019-03-23T07:57:05.560Z,41.55
2019-03-23T07:59:37.786Z,39.60
2019-03-23T08:02:09.675Z,41.88
2019-03-23T08:04:40.748Z,40.73
2019-03-23T08:07:11.223Z,41.35
2019-03-23T08:09:42.210Z,38.38
2019-03-23T08:12:12.705Z,37.63
2019-03-23T08:14:43.165Z,38.80
2019-03-23T08:17:13.718Z,38.45
2019-03-23T08:19:45.247Z,38.23
2019-03-23T08:22:15.847Z,37.60
2019-03-23T08:24:49.037Z,40.40
2019-03-23T08:27:19.683Z,38.90
2019-03-23T08:29:50.173Z,39.67
2019-03-23T08:32:21.298Z,38.78
2019-03-23T08:34:51.831Z,37.28
2019-03-23T08:37:22.382Z,36.85
2019-03-23T08:39:52.993Z,37.28
2019-03-23T08:42:23.547Z,38.45
2019-03-23T08:44:54.071Z,39.05
2019-03-23T08:47:24.560Z,37.88
2019-03-23T08:49:55.085Z,37.40
2019-03-23T08:52:25.637Z,37.67
2019-03-23T08:54:56.164Z,44.42
2019-03-23T08:57:26.722Z,40.67
2019-03-23T08:59:57.172Z,41.30
2019-03-23T09:02:28.039Z,38.17
2019-03-23T09:04:58.620Z,36.88
2019-03-23T09:07:29.257Z,38.08
2019-03-23T09:09:59.821Z,37.55
2019-03-23T09:12:30.665Z,37.75
2019-03-23T09:15:01.183Z,37.48
2019-03-23T09:17:31.731Z,36.58
2019-03-23T09:20:02.242Z,38.15
2019-03-23T09:22:32.787Z,36.77
2019-03-23T09:25:03.658Z,36.42
2019-03-23T09:27:34.218Z,36.00
2019-03-23T09:30:09.924Z,36.38
2019-03-23T09:32:40.483Z,38.20
2019-03-23T09:35:11.002Z,36.10
2019-03-23T09:37:41.550Z,37.03
2019-03-23T09:40:12.076Z,35.90
2019-03-23T09:42:42.642Z,38.48
2019-03-23T09:45:14.340Z,33.65
2019-03-23T09:47:45.552Z,35.88
2019-03-23T09:50:16.084Z,36.35
2019-03-23T09:52:46.629Z,35.52
2019-03-23T09:55:17.202Z,37.35
2019-03-23T09:57:47.696Z,36.88
2019-03-23T10:00:18.297Z,34.90
2019-03-23T10:02:48.852Z,33.85
2019-03-23T10:05:19.344Z,36.25
2019-03-23T10:07:49.885Z,36.77
2019-03-23T10:10:21.948Z,37.42
2019-03-23T10:12:52.701Z,34.78
2019-03-23T10:15:23.359Z,37.53
2019-03-23T10:17:53.919Z,35.00
2019-03-23T10:20:24.507Z,37.63
2019-03-23T10:22:55.061Z,37.38
2019-03-23T10:25:25.715Z,38.60
2019-03-23T10:27:56.399Z,36.28
2019-03-23T10:30:26.910Z,38.25
2019-03-23T10:32:57.480Z,37.90
2019-03-23T10:35:27.940Z,38.30
2019-03-23T10:37:58.486Z,38.42
2019-03-23T10:40:32.691Z,37.42
2019-03-23T10:43:01.202Z,34.35
2019-03-23T10:45:31.790Z,36.20
2019-03-23T10:48:02.411Z,34.18
2019-03-23T10:50:32.921Z,30.60
2019-03-23T10:53:03.419Z,30.65
2019-03-23T10:55:33.940Z,32.70
2019-03-23T10:58:04.477Z,34.95
2019-03-23T11:00:35.069Z,34.95
2019-03-23T11:03:05.690Z,31.23
2019-03-23T11:05:36.328Z,32.63
2019-03-23T11:08:07.038Z,30.62
2019-03-23T11:10:41.928Z,33.35
2019-03-23T11:13:10.822Z,31.48
2019-03-23T11:15:41.271Z,33.55
2019-03-23T11:18:11.755Z,33.00
2019-03-23T11:20:42.263Z,30.77
2019-03-23T11:23:12.812Z,30.40
2019-03-23T11:25:43.400Z,34.38
2019-03-23T11:28:13.962Z,30.57
2019-03-23T11:30:44.413Z,31.77
2019-03-23T11:33:16.021Z,31.52
2019-03-23T11:35:46.564Z,30.20
2019-03-23T11:38:17.121Z,29.25
2019-03-23T11:40:52.895Z,29.15
2019-03-23T11:43:19.947Z,29.18
2019-03-23T11:45:50.463Z,28.98
2019-03-23T11:48:21.104Z,29.65
2019-03-23T11:50:51.634Z,27.52
2019-03-23T11:53:22.178Z,28.35
2019-03-23T11:55:52.696Z,26.77
2019-03-23T11:58:23.316Z,27.90
2019-03-23T12:00:53.752Z,27.87
2019-03-23T12:03:24.225Z,28.27
2019-03-23T12:05:54.673Z,29.82
2019-03-23T12:08:25.226Z,28.85
2019-03-23T12:11:02.824Z,31.93
2019-03-23T12:13:29.043Z,29.65
2019-03-23T12:15:59.494Z,27.73
2019-03-23T12:18:29.993Z,25.88
2019-03-23T12:21:00.428Z,23.62
2019-03-23T12:23:30.916Z,25.80
2019-03-23T12:26:01.410Z,24.20
2019-03-23T12:28:31.951Z,26.65
2019-03-23T12:31:02.378Z,25.08
2019-03-23T12:33:33.023Z,26.75
2019-03-23T12:36:03.498Z,24.32
2019-03-23T12:38:34.053Z,23.27
2019-03-23T12:41:14.348Z,24.07
2019-03-23T12:43:36.708Z,20.20
2019-03-23T12:46:07.148Z,21.70
2019-03-23T12:48:38.777Z,24.35
2019-03-23T12:51:09.217Z,22.15
2019-03-23T12:53:39.706Z,22.37
2019-03-23T12:56:10.147Z,21.75
2019-03-23T12:58:40.645Z,22.45
2019-03-23T13:01:11.077Z,24.20
2019-03-23T13:03:41.554Z,22.80
2019-03-23T13:06:12.066Z,23.18
2019-03-23T13:08:42.543Z,22.73
2019-03-23T13:11:23.090Z,22.17
2019-03-23T13:13:46.386Z,15.08
2019-03-23T13:16:16.846Z,13.58
2019-03-23T13:18:47.341Z,15.70
2019-03-23T13:21:17.786Z,16.90
2019-03-23T13:23:48.303Z,16.85
2019-03-23T13:26:18.828Z,18.17
2019-03-23T13:28:49.306Z,16.60
2019-03-23T13:31:19.830Z,16.82
2019-03-23T13:33:51.489Z,16.85
2019-03-23T13:36:21.973Z,18.23
2019-03-23T13:38:52.450Z,16.37
2019-03-23T13:41:23.046Z,15.93
2019-03-23T13:43:53.545Z,15.43
2019-03-23T13:46:25.068Z,15.80
2019-03-23T13:48:55.760Z,16.35
2019-03-23T13:51:26.276Z,15.72
2019-03-23T13:53:58.002Z,16.52
2019-03-23T13:56:28.534Z,15.63
2019-03-23T13:58:59.276Z,15.70
2019-03-23T14:01:29.715Z,14.58
2019-03-23T14:04:00.356Z,15.43
2019-03-23T14:06:30.795Z,16.62
2019-03-23T14:09:01.364Z,16.35
2019-03-23T14:11:31.997Z,15.08
2019-03-23T14:14:02.607Z,15.43
2019-03-23T14:16:33.141Z,15.75
2019-03-23T14:19:03.706Z,13.00
2019-03-23T14:21:36.396Z,12.45
2019-03-23T14:24:06.643Z,10.72
2019-03-23T14:26:37.173Z,12.18
2019-03-23T14:29:07.842Z,12.35
2019-03-23T14:31:38.407Z,12.13
2019-03-23T14:34:08.935Z,12.25
2019-03-23T14:36:41.486Z,11.30
2019-03-23T14:39:12.576Z,11.60
2019-03-23T14:41:43.129Z,11.00
2019-03-23T14:44:13.802Z,10.93
2019-03-23T14:46:44.777Z,10.10
2019-03-23T14:49:15.415Z,8.45
2019-03-23T14:51:45.856Z,10.20
2019-03-23T14:54:16.443Z,10.95
2019-03-23T14:56:46.966Z,9.00
2019-03-23T14:59:17.626Z,10.98
2019-03-23T15:01:48.049Z,9.15
2019-03-23T15:04:18.526Z,8.15
2019-03-23T15:06:49.035Z,6.37
2019-03-23T15:09:19.594Z,6.85
2019-03-23T15:11:50.107Z,7.70
2019-03-23T15:14:20.715Z,7.25
2019-03-23T15:16:51.158Z,6.62
2019-03-23T15:19:21.797Z,7.03
2019-03-23T15:21:52.239Z,6.83
2019-03-23T15:24:22.802Z,7.42
2019-03-23T15:26:53.332Z,7.75
2019-03-23T15:29:23.833Z,7.15
2019-03-23T15:31:54.491Z,6.92
2019-03-23T15:34:25.098Z,7.70
2019-03-23T15:36:55.569Z,5.17
2019-03-23T15:39:26.126Z,5.97
2019-03-23T15:41:56.549Z,6.65
2019-03-23T15:44:27.078Z,6.97
2019-03-23T15:46:57.529Z,6.40
2019-03-23T15:49:28.131Z,6.33
2019-03-23T15:51:58.564Z,6.15
2019-03-23T15:54:29.140Z,6.42
2019-03-23T15:57:00.461Z,5.47
2019-03-23T15:59:31.735Z,6.22
2019-03-23T16:02:02.244Z,9.30
2019-03-23T16:04:32.798Z,9.43
2019-03-23T16:07:03.396Z,9.68
2019-03-23T16:09:33.962Z,13.00
2019-03-23T16:12:04.427Z,10.63
2019-03-23T16:14:35.059Z,9.88
2019-03-23T16:17:06.014Z,9.20
2019-03-23T16:19:36.585Z,10.78
2019-03-23T16:22:07.274Z,11.78
2019-03-23T16:24:37.910Z,8.95
2019-03-23T16:27:09.575Z,7.62
2019-03-23T16:29:40.440Z,7.75
2019-03-23T16:32:10.895Z,10.50
2019-03-23T16:34:41.524Z,12.33
2019-03-23T16:37:12.001Z,15.23
2019-03-23T16:39:42.483Z,17.25
2019-03-23T16:42:13.007Z,21.33
2019-03-23T16:44:43.509Z,24.98
2019-03-23T16:47:14.034Z,24.47
2019-03-23T16:49:44.664Z,35.15
2019-03-23T16:52:15.199Z,37.20
2019-03-23T16:54:45.741Z,30.12
2019-03-23T16:57:16.188Z,33.23
2019-03-23T16:59:46.684Z,33.50
2019-03-23T17:02:17.211Z,31.93
2019-03-23T17:04:47.843Z,33.23
2019-03-23T17:07:18.377Z,36.20
2019-03-23T17:09:48.915Z,35.88
2019-03-23T17:12:20.427Z,37.05
2019-03-23T17:14:50.898Z,36.30
2019-03-23T17:17:21.480Z,33.45
2019-03-23T17:19:52.102Z,37.48
2019-03-23T17:22:22.574Z,42.45
2019-03-23T17:24:53.170Z,39.00
2019-03-23T17:27:23.715Z,30.15
2019-03-23T17:29:54.337Z,34.73
2019-03-23T17:32:24.849Z,34.35
2019-03-23T17:34:55.607Z,36.03
2019-03-23T17:37:26.063Z,31.45
2019-03-23T17:39:56.625Z,34.53
2019-03-23T17:42:27.210Z,38.30
2019-03-23T17:44:57.831Z,41.40
2019-03-23T17:47:28.539Z,41.90
2019-03-23T17:50:00.378Z,39.92
2019-03-23T17:52:30.905Z,41.73
2019-03-23T17:55:01.391Z,41.20
2019-03-23T17:57:33.012Z,41.65
2019-03-23T18:00:08.659Z,34.20
2019-03-23T18:02:40.314Z,42.38
2019-03-23T18:05:12.202Z,41.65
2019-03-23T18:07:43.011Z,41.90
2019-03-23T18:10:13.560Z,40.10
2019-03-23T18:12:44.169Z,42.55
2019-03-23T18:15:14.788Z,33.38
2019-03-23T18:17:45.428Z,37.95
2019-03-23T18:20:15.982Z,38.83
2019-03-23T18:22:46.575Z,37.35
2019-03-23T18:25:17.061Z,32.35
2019-03-23T18:27:48.823Z,30.25
2019-03-23T18:30:40.254Z,34.00
2019-03-23T18:33:10.706Z,34.50
2019-03-23T18:35:41.259Z,33.88
2019-03-23T18:38:11.772Z,29.67
2019-03-23T18:40:42.257Z,29.77
2019-03-23T18:43:12.686Z,28.77
2019-03-23T18:45:43.392Z,26.55
2019-03-23T18:48:13.944Z,27.17
2019-03-23T18:50:44.411Z,28.15
2019-03-23T18:53:14.978Z,25.15
2019-03-23T18:55:45.556Z,25.88
2019-03-23T18:58:16.070Z,23.75
2019-03-23T19:00:46.651Z,24.60
2019-03-23T19:03:17.099Z,25.23
2019-03-23T19:05:47.657Z,25.80
2019-03-23T19:08:18.268Z,25.60
2019-03-23T19:10:48.802Z,25.32
2019-03-23T19:13:19.259Z,24.65
2019-03-23T19:15:49.806Z,24.60
2019-03-23T19:18:20.334Z,25.65
2019-03-23T19:20:50.811Z,24.43
2019-03-23T19:23:21.377Z,24.55
2019-03-23T19:25:52.098Z,23.62
2019-03-23T19:28:22.630Z,24.98
2019-03-23T19:30:53.290Z,25.12
2019-03-23T19:33:23.955Z,25.48
2019-03-23T19:35:54.479Z,24.15
2019-03-23T19:38:24.960Z,23.15
2019-03-23T19:40:55.498Z,25.00
2019-03-23T19:43:26.038Z,23.38
2019-03-23T19:45:56.496Z,22.98
2019-03-23T19:48:27.050Z,25.27
2019-03-23T19:50:57.693Z,24.27
2019-03-23T19:53:28.246Z,23.92
2019-03-23T19:55:58.763Z,25.30
2019-03-23T19:58:29.243Z,27.85
2019-03-23T20:00:59.702Z,25.65
2019-03-23T20:03:30.356Z,28.35
2019-03-23T20:06:00.806Z,28.42
2019-03-23T20:08:32.354Z,26.95
2019-03-23T20:11:02.869Z,27.98
2019-03-23T20:13:33.365Z,28.80
2019-03-23T20:16:03.894Z,26.52
2019-03-23T20:18:34.436Z,27.73
2019-03-23T20:21:04.887Z,28.45
2019-03-23T20:23:35.409Z,29.72
2019-03-23T20:26:05.898Z,28.35
2019-03-23T20:28:36.467Z,28.55
2019-03-23T20:31:07.098Z,28.95
2019-03-23T20:33:37.708Z,27.32
2019-03-23T20:36:08.232Z,27.62
2019-03-23T20:38:39.274Z,26.93
2019-03-23T20:41:09.725Z,26.70
2019-03-23T20:43:40.196Z,26.07
2019-03-23T20:46:13.023Z,28.98
2019-03-23T20:48:42.978Z,28.73
2019-03-23T20:51:13.883Z,24.85
2019-03-23T20:53:44.684Z,26.15
2019-03-23T20:56:23.678Z,27.62
2019-03-23T20:58:57.356Z,25.60
2019-03-23T21:01:27.885Z,25.65
2019-03-23T21:03:58.359Z,23.40
2019-03-23T21:06:28.868Z,23.47
2019-03-23T21:08:59.706Z,21.27
2019-03-23T21:11:30.231Z,22.15
2019-03-23T21:14:00.777Z,21.68
2019-03-23T21:16:31.282Z,20.92
2019-03-23T21:19:01.751Z,20.62
2019-03-23T21:21:32.271Z,21.68
2019-03-23T21:24:02.818Z,20.92
2019-03-23T21:26:33.311Z,19.32
2019-03-23T21:29:03.854Z,19.30
2019-03-23T21:31:34.383Z,16.85
2019-03-23T21:34:04.860Z,17.40
2019-03-23T21:36:36.367Z,17.57
2019-03-23T21:39:07.473Z,17.05
2019-03-23T21:41:37.991Z,16.95
2019-03-23T21:44:08.625Z,16.27
2019-03-23T21:46:39.155Z,16.37
2019-03-23T21:49:09.716Z,15.53
2019-03-23T21:51:40.239Z,14.03
2019-03-23T21:54:10.785Z,15.88
2019-03-23T21:56:41.313Z,13.83
2019-03-23T21:59:11.882Z,14.40
2019-03-23T22:01:42.332Z,13.65
2019-03-23T22:04:12.859Z,13.60
2019-03-23T22:06:44.357Z,13.25
2019-03-23T22:09:14.855Z,13.50
2019-03-23T22:11:45.419Z,14.83
2019-03-23T22:14:15.975Z,13.28
2019-03-23T22:16:46.573Z,12.53
2019-03-23T22:19:17.113Z,12.82
2019-03-23T22:21:47.784Z,12.98
2019-03-23T22:24:18.261Z,13.22
2019-03-23T22:26:48.724Z,12.58
2019-03-23T22:29:19.279Z,12.82
2019-03-23T22:31:49.775Z,13.93
2019-03-23T22:34:20.250Z,13.30
2019-03-23T22:36:50.689Z,13.15
2019-03-23T22:39:21.228Z,12.65
2019-03-23T22:41:51.741Z,13.28
2019-03-23T22:44:22.303Z,12.93
2019-03-23T22:46:52.799Z,12.58
2019-03-23T22:49:23.354Z,12.80
2019-03-23T22:51:54.014Z,12.65
2019-03-23T22:54:24.570Z,13.30
2019-03-23T22:56:55.057Z,12.98
2019-03-23T22:59:25.572Z,12.75
2019-03-23T23:01:56.206Z,13.35
2019-03-23T23:04:26.743Z,12.10
2019-03-23T23:06:57.254Z,13.40
2019-03-23T23:09:27.796Z,11.35
2019-03-23T23:11:58.247Z,12.80
2019-03-23T23:14:28.713Z,13.43
2019-03-23T23:16:59.206Z,13.30
2019-03-23T23:19:29.818Z,12.53
2019-03-23T23:22:01.667Z,12.70
2019-03-23T23:24:32.198Z,13.40
2019-03-23T23:27:02.717Z,13.72
2019-03-23T23:29:33.252Z,12.58
2019-03-23T23:32:03.764Z,12.50
2019-03-23T23:34:34.368Z,12.60
2019-03-23T23:37:05.008Z,12.80
2019-03-23T23:39:35.732Z,13.48
2019-03-23T23:42:06.248Z,12.25
2019-03-23T23:44:37.805Z,13.28
2019-03-23T23:47:08.383Z,13.85
2019-03-23T23:49:39.022Z,12.00
2019-03-23T23:52:09.631Z,13.05
2019-03-23T23:54:40.169Z,15.65
2019-03-23T23:57:10.597Z,13.00
2019-03-23T23:59:41.123Z,13.38
